createdAt,value
2022-10-25T00:02:01.907Z,98153.28
2022-10-25T00:07:04.365Z,98141.81
2022-10-25T00:12:07.276Z,98152.69
2022-10-25T00:17:10.865Z,98156.84
2022-10-25T00:22:13.197Z,98153.13
2022-10-25T00:27:15.547Z,98151.69
2022-10-25T00:32:17.911Z,98152.97
2022-10-25T00:37:20.441Z,98149.28
2022-10-25T00:42:27.040Z,98145.16
2022-10-25T00:47:44.654Z,98153.00
2022-10-25T00:52:52.777Z,98159.44
2022-10-25T00:58:06.338Z,98157.94
2022-10-25T01:03:08.781Z,98149.31
2022-10-25T01:08:12.250Z,98148.56
2022-10-25T01:13:15.263Z,98155.34
2022-10-25T01:18:34.837Z,98149.72
2022-10-25T01:24:05.401Z,98141.97
2022-10-25T01:29:44.873Z,98137.03
2022-10-25T01:35:02.736Z,98136.13
2022-10-25T01:40:11.217Z,98137.16
2022-10-25T01:45:22.132Z,98136.69
2022-10-25T01:50:26.257Z,98146.88
2022-10-25T01:55:41.703Z,98137.53
2022-10-25T02:00:57.788Z,98154.72
2022-10-25T02:06:38.698Z,98150.22
2022-10-25T02:11:41.265Z,98162.03
2022-10-25T02:17:08.972Z,98150.81
2022-10-25T02:22:14.956Z,98143.31
2022-10-25T02:27:20.560Z,98150.03
2022-10-25T02:32:23.531Z,98150.47
2022-10-25T02:37:25.855Z,98145.03
2022-10-25T02:48:59.688Z,98136.50
2022-10-25T02:54:02.062Z,98132.94
2022-10-25T02:59:04.624Z,98135.66
2022-10-25T03:04:07.081Z,98132.63
2022-10-25T03:09:09.420Z,98121.03
2022-10-25T03:14:11.796Z,98117.94
2022-10-25T03:19:14.138Z,98121.03
2022-10-25T03:24:16.661Z,98142.81
2022-10-25T03:29:19.124Z,98151.25
2022-10-25T03:34:21.942Z,98151.91
2022-10-25T03:39:24.463Z,98140.94
2022-10-25T03:44:26.848Z,98156.09
2022-10-25T03:49:29.227Z,98152.50
2022-10-25T03:54:31.702Z,98160.69
2022-10-25T03:59:34.047Z,98165.72
2022-10-25T04:04:36.482Z,98169.53
2022-10-25T04:09:38.829Z,98167.59
2022-10-25T04:14:41.213Z,98162.56
2022-10-25T04:19:43.777Z,98164.94
2022-10-25T04:24:46.424Z,98166.81
2022-10-25T04:29:48.829Z,98158.97
2022-10-25T04:34:51.335Z,98169.53
2022-10-25T04:39:53.849Z,98176.53
2022-10-25T04:44:56.245Z,98171.09
2022-10-25T04:49:58.747Z,98170.13
2022-10-25T04:55:01.123Z,98171.34
2022-10-25T05:00:04.494Z,98166.31
2022-10-25T05:05:07.284Z,98164.78
2022-10-25T05:10:10.195Z,98178.06
2022-10-25T05:15:12.573Z,98173.81
2022-10-25T05:20:14.967Z,98182.84
2022-10-25T05:25:17.514Z,98184.34
2022-10-25T05:30:19.967Z,98183.59
2022-10-25T05:35:22.562Z,98188.44
2022-10-25T05:40:25.017Z,98189.22
2022-10-25T05:45:27.339Z,98192.97
2022-10-25T05:50:29.703Z,98192.19
2022-10-25T05:55:33.884Z,98205.47
2022-10-25T06:00:36.220Z,98194.13
2022-10-25T06:05:38.565Z,98199.19
2022-10-25T06:10:40.948Z,98201.91
2022-10-25T06:15:43.453Z,98203.06
2022-10-25T06:20:45.915Z,98200.78
2022-10-25T06:25:48.337Z,98212.72
2022-10-25T06:30:50.704Z,98226.91
2022-10-25T06:36:01.283Z,98249.72
2022-10-25T06:41:09.888Z,98252.97
2022-10-25T06:46:18.381Z,98249.75
2022-10-25T06:51:21.953Z,98258.94
2022-10-25T06:56:25.773Z,98271.22
2022-10-25T07:01:28.786Z,98276.28
2022-10-25T07:06:36.083Z,98287.63
2022-10-25T07:11:39.559Z,98287.19
2022-10-25T07:16:41.971Z,98285.66
2022-10-25T07:21:45.194Z,98292.97
2022-10-25T07:26:47.595Z,98284.63
2022-10-25T07:31:49.983Z,98300.53
2022-10-25T07:36:52.674Z,98305.00
2022-10-25T07:41:55.262Z,98304.03
2022-10-25T07:46:57.643Z,98304.00
2022-10-25T07:52:00.235Z,98302.97
2022-10-25T07:57:02.721Z,98303.69
2022-10-25T08:02:05.476Z,98308.94
2022-10-25T08:07:07.930Z,98303.09
2022-10-25T08:12:12.006Z,98306.59
2022-10-25T08:17:15.689Z,98311.34
2022-10-25T08:22:18.269Z,98303.25
2022-10-25T08:27:21.178Z,98299.78
2022-10-25T08:32:23.690Z,98291.47
2022-10-25T08:37:26.139Z,98299.00
2022-10-25T08:42:47.634Z,98309.28
2022-10-25T08:47:54.194Z,98305.13
2022-10-25T08:53:00.484Z,98303.38
2022-10-25T08:58:31.033Z,98314.50
2022-10-25T09:03:34.176Z,98305.88
2022-10-25T09:08:48.383Z,98314.94
2022-10-25T09:14:05.536Z,98325.28
2022-10-25T09:19:19.131Z,98323.25
2022-10-25T09:24:54.094Z,98324.91
2022-10-25T09:30:11.914Z,98322.88
2022-10-25T09:35:23.370Z,98310.13
2022-10-25T09:40:31.804Z,98308.97
2022-10-25T09:46:04.587Z,98316.56
2022-10-25T09:51:22.157Z,98305.75
2022-10-25T09:56:25.166Z,98306.19
2022-10-25T10:01:29.426Z,98312.59
2022-10-25T10:06:40.145Z,98301.22
2022-10-25T10:11:44.495Z,98313.50
2022-10-25T10:16:51.012Z,98314.09
2022-10-25T10:21:57.224Z,98313.94
2022-10-25T10:27:02.655Z,98310.44
2022-10-25T10:32:25.583Z,98293.38
2022-10-25T10:37:30.052Z,98304.66
2022-10-25T10:42:32.598Z,98292.47
2022-10-25T10:47:48.635Z,98282.34
2022-10-25T10:53:05.092Z,98282.38
2022-10-25T10:58:16.653Z,98269.47
2022-10-25T11:03:45.214Z,98265.31
2022-10-25T11:09:18.084Z,98264.13
2022-10-25T11:14:21.936Z,98266.47
2022-10-25T11:19:54.098Z,98258.16
2022-10-25T11:25:21.576Z,98254.38
2022-10-25T11:30:28.701Z,98248.97
2022-10-25T11:35:50.127Z,98245.66
2022-10-25T11:41:11.423Z,98252.91
2022-10-25T11:46:34.165Z,98255.19
2022-10-25T11:51:42.591Z,98251.50
2022-10-25T11:57:06.006Z,98248.22
2022-10-25T12:02:36.372Z,98243.94
2022-10-25T12:08:05.690Z,98256.13
2022-10-25T12:13:28.291Z,98243.03
2022-10-25T12:18:34.580Z,98251.09
2022-10-25T12:23:53.136Z,98237.44
2022-10-25T12:28:59.361Z,98244.50
2022-10-25T12:34:21.233Z,98242.34
2022-10-25T12:39:30.739Z,98231.41
2022-10-25T12:44:55.822Z,98229.22
2022-10-25T12:50:24.403Z,98221.00
2022-10-25T12:55:29.684Z,98226.59
2022-10-25T13:00:57.585Z,98221.50
2022-10-25T13:06:08.984Z,98228.22
2022-10-25T13:11:12.165Z,98218.31
2022-10-25T13:16:30.436Z,98215.31
2022-10-25T13:21:54.628Z,98229.53
2022-10-25T13:27:18.882Z,98230.47
2022-10-25T13:32:21.827Z,98219.28
2022-10-25T13:37:33.553Z,98227.00
2022-10-25T13:42:37.773Z,98225.34
2022-10-25T13:47:55.717Z,98229.91
2022-10-25T13:53:23.506Z,98222.16
2022-10-25T13:58:40.689Z,98209.88
2022-10-25T14:03:48.607Z,98203.94
2022-10-25T14:09:22.565Z,98211.38
2022-10-25T14:14:49.012Z,98209.34
2022-10-25T14:19:57.675Z,98202.84
2022-10-25T14:25:07.599Z,98195.38
2022-10-25T14:30:30.284Z,98194.16
2022-10-25T14:36:04.593Z,98191.09
2022-10-25T14:41:12.954Z,98198.00
2022-10-25T14:46:23.496Z,98193.31
2022-10-25T14:51:33.953Z,98188.44
2022-10-25T14:56:44.866Z,98185.06
2022-10-25T15:02:15.315Z,98181.34
2022-10-25T15:07:22.676Z,98183.78
2022-10-25T15:12:27.536Z,98189.56
2022-10-25T15:17:30.725Z,98185.97
2022-10-25T15:22:39.052Z,98184.47
2022-10-25T15:27:42.713Z,98172.84
2022-10-25T15:32:45.288Z,98172.47
2022-10-25T15:37:48.007Z,98171.59
2022-10-25T15:42:50.373Z,98176.72
2022-10-25T15:47:55.217Z,98166.22
2022-10-25T15:52:58.357Z,98173.00
2022-10-25T15:58:01.134Z,98170.91
2022-10-25T16:03:04.577Z,98168.38
2022-10-25T16:08:08.635Z,98170.03
2022-10-25T16:13:15.518Z,98175.56
2022-10-25T16:18:17.920Z,98172.22
2022-10-25T16:23:23.957Z,98170.69
2022-10-25T16:33:48.871Z,98160.25
2022-10-25T16:38:51.681Z,98169.25
2022-10-25T16:43:54.574Z,98162.22
2022-10-25T16:48:59.563Z,98166.91
2022-10-25T16:54:05.161Z,98165.28
2022-10-25T16:59:07.582Z,98172.56
2022-10-25T17:04:10.644Z,98162.00
2022-10-25T17:09:15.562Z,98156.09
2022-10-25T17:14:18.180Z,98155.69
2022-10-25T17:19:20.519Z,98156.69
2022-10-25T17:24:24.053Z,98144.38
2022-10-25T17:29:26.652Z,98140.47
2022-10-25T17:34:29.016Z,98146.34
2022-10-25T17:39:31.403Z,98145.63
2022-10-25T17:44:33.762Z,98151.50
2022-10-25T17:49:36.261Z,98143.38
2022-10-25T17:54:39.449Z,98139.56
2022-10-25T17:59:41.817Z,98139.69
2022-10-25T18:05:01.197Z,98139.88
2022-10-25T18:10:08.452Z,98148.63
2022-10-25T18:15:11.082Z,98151.81
2022-10-25T18:20:13.641Z,98138.81
2022-10-25T18:25:16.290Z,98145.66
2022-10-25T18:30:18.746Z,98155.34
2022-10-25T18:35:21.446Z,98157.59
2022-10-25T18:40:24.551Z,98162.41
2022-10-25T18:50:49.591Z,98154.06
2022-10-25T18:55:52.096Z,98143.25
2022-10-25T19:00:54.883Z,98132.91
2022-10-25T19:05:57.411Z,98133.09
2022-10-25T19:11:04.681Z,98127.63
2022-10-25T19:16:07.928Z,98132.44
2022-10-25T19:21:12.751Z,98120.69
2022-10-25T19:26:18.423Z,98119.69
2022-10-25T19:31:20.825Z,98128.16
2022-10-25T19:36:23.600Z,98121.78
2022-10-25T19:41:26.228Z,98128.16
2022-10-25T19:46:28.652Z,98131.19
2022-10-25T19:51:31.276Z,98125.16
2022-10-25T19:56:37.491Z,98121.03
2022-10-25T20:01:40.026Z,98106.75
2022-10-25T20:06:42.516Z,98101.28
2022-10-25T20:11:45.076Z,98103.13
2022-10-25T20:16:47.491Z,98101.03
2022-10-25T20:21:49.977Z,98099.66
2022-10-25T20:26:53.426Z,98098.88
2022-10-25T20:31:56.219Z,98098.47
2022-10-25T20:36:58.662Z,98094.78
2022-10-25T20:42:01.098Z,98084.59
2022-10-25T20:47:03.601Z,98076.22
2022-10-25T20:52:06.054Z,98086.72
2022-10-25T20:57:10.086Z,98079.09
2022-10-25T21:02:12.602Z,98066.91
2022-10-25T21:07:15.051Z,98071.59
2022-10-25T21:12:17.728Z,98070.22
2022-10-25T21:17:20.193Z,98069.59
2022-10-25T21:22:22.587Z,98074.72
2022-10-25T21:27:24.943Z,98083.63
2022-10-25T21:32:27.300Z,98064.63
2022-10-25T21:37:29.690Z,98062.91
2022-10-25T21:42:32.928Z,98065.50
2022-10-25T21:47:36.290Z,98070.00
2022-10-25T21:52:38.696Z,98040.06
2022-10-25T21:57:41.072Z,98034.50
2022-10-25T22:08:06.154Z,98034.16
2022-10-25T22:13:08.486Z,98036.44
2022-10-25T22:18:10.889Z,98058.84
2022-10-25T22:23:13.517Z,98059.34
2022-10-25T22:28:15.978Z,98054.72
2022-10-25T22:33:18.544Z,98052.00
2022-10-25T22:38:21.152Z,98041.75
2022-10-25T22:43:23.542Z,98030.16
2022-10-25T22:48:29.349Z,98034.31
2022-10-25T22:53:32.188Z,98053.22
2022-10-25T22:58:36.255Z,98035.00
2022-10-25T23:03:46.966Z,98021.97
2022-10-25T23:08:51.652Z,98014.44
2022-10-25T23:13:54.654Z,98014.91
2022-10-25T23:18:57.524Z,98029.84
2022-10-25T23:24:00.768Z,98025.53
2022-10-25T23:29:04.208Z,98034.72
2022-10-25T23:34:06.564Z,98027.19
2022-10-25T23:39:09.182Z,98028.91
2022-10-25T23:44:11.683Z,98024.31
2022-10-25T23:49:14.269Z,98018.34
2022-10-25T23:54:16.705Z,98019.75
2022-10-25T23:59:19.368Z,98016.47
